Main page
METAR-TAF:

METAR-TAF

Airports :

Cornwall Airport Newquay

Newquay Cornwall, England

latitude: 50-26N, longitude: 005-00W, elevation: 119 m

Current weather observation

The report was made 19 minutes ago, at 07:20 UTC
Wind 18 kt from the Northwest
Temperature 11°C
Humidity 87%
Pressure 1002 hPa
Visibility 10 km or more

METAR: EGHQ 050720Z AUTO 31018KT 9999 OVC017/// 11/09 Q1002 REDZ

Time: 08:39 (07:39 UTC)

Forecast

The report was made 4 hours and 33 minutes ago, at 03:06 UTC
Forecast valid from 05 at 03 UTC to 05 at 12 UTC
Wind 17 kt from the Northwest
Visibility 10 km or more
Broken clouds at a height of 900 ft
Becoming
from 05 at 03 UTC to 05 at 05 UTC
Scattered clouds at a height of 3000 ft
Probability 30% :
Temporary
from 05 at 03 UTC to 05 at 12 UTC
Wind 20 kt from the Northwest with gusts up to 30 kt
Visibility: 8000 m
Broken clouds at a height of 900 ft
light rain showers

TAF: EGHQ 050306Z 0503/0512 32017KT 9999 BKN009 BECMG 0503/0505 SCT030 PROB30 TEMPO 0503/0512 31020G30KT 8000 -SHRA BKN009

Weather observations and forecasts of more than 4000 airports (METAR and TAF reports).

The available stations are represented by yellow and red dots on the map.

Hover mouse over dot to see the name of the station.

Then click to see weather observations and forecasts.

To change the map : click on the green buttons with a black cross to zoom in, on the green button with a dash to zoom out, or on the green arrows for adjacent maps.


METAR-TAF: